Time;durP1;ratioP1;P1;durP2;ratioP2;P2;SDS_P1;SDS_P2;PMS_P1;PMS_P2;Temp;Humidity;BMP_temperature;BMP_pressure;BME280_temperature;BME280_humidity;BME280_pressure;Samples;Min_cycle;Max_cycle;Signal;HPM_P1;HPM_P2
2021/05/11 00:02:16;;;;;;;7.15;1.77;;;21.20;43.70;;;;;;5031784;28;20130;-68
2021/05/11 00:04:42;;;;;;;4.13;1.63;;;21.20;43.90;;;;;;5019059;28;20034;-68
2021/05/11 00:07:08;;;;;;;4.10;2.45;;;21.10;44.00;;;;;;5011948;28;20526;-68
2021/05/11 00:09:33;;;;;;;2.40;1.27;;;21.10;44.20;;;;;;5029945;28;20052;-68
2021/05/11 00:11:59;;;;;;;2.20;1.50;;;21.10;44.10;;;;;;5031242;28;20386;-68
2021/05/11 00:14:25;;;;;;;3.55;1.50;;;21.10;44.60;;;;;;5024929;28;20029;-68
2021/05/11 00:16:50;;;;;;;4.63;1.60;;;21.00;44.50;;;;;;5030190;28;20026;-68
2021/05/11 00:19:17;;;;;;;1.98;1.35;;;21.00;45.10;;;;;;5029799;28;20026;-68
2021/05/11 00:21:43;;;;;;;4.07;1.90;;;20.90;44.60;;;;;;5030656;28;20026;-69
2021/05/11 00:24:09;;;;;;;2.70;1.40;;;20.90;45.00;;;;;;5025826;28;20040;-68
2021/05/11 00:26:37;;;;;;;4.55;2.00;;;20.90;44.70;;;;;;5011721;28;20104;-68
2021/05/11 00:29:04;;;;;;;2.95;1.90;;;20.80;45.30;;;;;;5011546;28;20088;-68
2021/05/11 00:31:30;;;;;;;3.72;1.70;;;20.80;45.00;;;;;;5011488;28;20109;-68
2021/05/11 00:33:56;;;;;;;5.07;1.60;;;20.80;45.20;;;;;;5015702;28;20490;-70
2021/05/11 00:36:23;;;;;;;3.58;1.40;;;20.70;44.80;;;;;;5025621;28;20053;-68
2021/05/11 00:38:48;;;;;;;3.78;1.63;;;20.70;44.90;;;;;;5035010;28;20006;-68
2021/05/11 00:41:14;;;;;;;3.65;1.67;;;20.70;45.00;;;;;;5033754;28;20035;-68
2021/05/11 00:43:44;;;;;;;3.08;1.55;;;20.60;44.90;;;;;;5033906;28;20013;-68
2021/05/11 00:46:12;;;;;;;1.52;1.30;;;20.60;45.30;;;;;;5015341;28;20026;-68
2021/05/11 00:48:38;;;;;;;3.85;1.42;;;20.60;45.40;;;;;;5015144;28;20451;-68
2021/05/11 00:51:05;;;;;;;3.40;1.52;;;20.50;44.90;;;;;;5015032;28;20030;-68
2021/05/11 00:53:31;;;;;;;2.45;1.60;;;20.50;45.00;;;;;;5015141;28;20026;-68
2021/05/11 00:55:57;;;;;;;6.47;1.42;;;20.40;45.50;;;;;;5023597;28;20480;-68
2021/05/11 00:58:24;;;;;;;4.53;1.90;;;20.40;45.50;;;;;;5015175;28;20036;-68
2021/05/11 01:00:50;;;;;;;6.32;1.45;;;20.40;45.60;;;;;;5015118;28;20507;-68
2021/05/11 01:03:16;;;;;;;3.83;1.70;;;20.30;45.30;;;;;;5015040;28;20107;-68
2021/05/11 01:05:42;;;;;;;3.47;1.63;;;20.30;45.30;;;;;;5031384;28;20033;-68
2021/05/11 01:08:10;;;;;;;5.22;1.35;;;20.30;45.20;;;;;;5015366;28;20184;-68
2021/05/11 01:10:36;;;;;;;4.85;1.83;;;20.20;45.20;;;;;;5014526;28;20336;-67
2021/05/11 01:13:02;;;;;;;4.10;1.92;;;20.20;45.80;;;;;;5014671;28;20026;-68
2021/05/11 01:15:30;;;;;;;2.25;1.50;;;20.20;45.80;;;;;;5028333;28;20022;-67
2021/05/11 01:18:07;;;;;;;3.17;1.60;;;20.10;46.00;;;;;;5034367;28;20057;-68
2021/05/11 01:20:46;;;;;;;2.85;1.42;;;20.10;46.20;;;;;;5033489;28;20029;-68
2021/05/11 01:23:51;;;;;;;1.65;1.33;;;20.10;45.90;;;;;;5033496;28;20026;-68
2021/05/11 01:26:19;;;;;;;4.70;1.77;;;20.00;45.80;;;;;;5032304;28;20038;-68
2021/05/11 01:28:53;;;;;;;3.28;1.55;;;20.00;45.80;;;;;;5034245;28;20021;-68
2021/05/11 01:31:40;;;;;;;4.70;1.65;;;20.00;46.00;;;;;;5023858;28;20018;-68
2021/05/11 02:17:56;;;;;;;3.28;1.52;;;19.50;46.70;;;;;;5013566;28;20028;-68
2021/05/11 02:25:01;;;;;;;4.00;1.25;;;19.30;46.80;;;;;;5021724;28;20076;-68
2021/05/11 02:27:27;;;;;;;1.70;1.02;;;19.30;46.90;;;;;;5016005;28;20080;-68
2021/05/11 02:29:52;;;;;;;1.85;1.20;;;19.20;46.90;;;;;;5032858;28;20026;-68
2021/05/11 02:32:19;;;;;;;4.03;1.30;;;19.20;46.90;;;;;;5028242;28;20022;-68
2021/05/11 02:34:45;;;;;;;3.50;1.38;;;19.20;47.00;;;;;;5021309;28;20471;-68
2021/05/11 02:37:10;;;;;;;5.13;1.35;;;19.20;47.00;;;;;;5032821;28;20056;-68
2021/05/11 02:39:37;;;;;;;4.22;1.35;;;19.20;47.00;;;;;;5032793;28;20026;-68
2021/05/11 02:42:07;;;;;;;3.10;1.38;;;19.10;46.90;;;;;;5032721;28;20017;-68
2021/05/11 02:44:45;;;;;;;3.72;1.25;;;19.10;47.00;;;;;;5024521;28;20022;-68
2021/05/11 02:47:11;;;;;;;2.67;1.10;;;19.10;46.80;;;;;;5011617;28;20030;-68
2021/05/11 02:49:40;;;;;;;3.08;1.23;;;19.10;46.80;;;;;;5012684;28;20053;-68
2021/05/11 02:52:06;;;;;;;5.63;1.75;;;19.10;46.90;;;;;;5012821;28;20030;-68
2021/05/11 02:54:32;;;;;;;6.50;1.52;;;19.10;46.90;;;;;;5018936;28;20017;-68
2021/05/11 02:56:57;;;;;;;5.53;1.77;;;19.10;47.00;;;;;;5032445;28;20049;-69
2021/05/11 02:59:23;;;;;;;5.35;1.50;;;19.00;47.20;;;;;;5031920;28;20025;-68
2021/05/11 03:01:49;;;;;;;3.58;1.40;;;19.00;47.20;;;;;;5029921;28;20457;-68
2021/05/11 03:04:15;;;;;;;8.82;2.50;;;19.00;47.20;;;;;;5028880;28;20412;-68
2021/05/11 03:06:40;;;;;;;4.32;1.90;;;19.00;47.30;;;;;;5023926;28;20041;-68
2021/05/11 03:09:06;;;;;;;5.65;1.60;;;19.00;47.20;;;;;;5012372;28;20030;-69
2021/05/11 03:11:32;;;;;;;2.85;1.38;;;18.90;47.30;;;;;;5012961;28;20476;-68
2021/05/11 03:13:57;;;;;;;4.85;1.52;;;18.90;47.10;;;;;;5013434;28;20037;-68
2021/05/11 03:16:24;;;;;;;2.85;1.63;;;18.90;47.10;;;;;;5012454;28;20435;-68
2021/05/11 03:18:50;;;;;;;3.60;1.73;;;18.90;47.10;;;;;;5012736;28;20030;-69
2021/05/11 03:21:16;;;;;;;5.13;1.45;;;18.80;47.00;;;;;;5012263;28;20045;-68
2021/05/11 03:23:41;;;;;;;3.55;1.40;;;18.80;47.00;;;;;;5012387;28;20056;-68
2021/05/11 03:26:07;;;;;;;3.60;1.50;;;18.80;46.80;;;;;;5030815;28;20026;-68
2021/05/11 03:28:33;;;;;;;4.25;1.40;;;18.80;46.70;;;;;;5032055;28;20053;-68
2021/05/11 03:30:59;;;;;;;3.72;1.52;;;18.80;46.80;;;;;;5025843;28;20027;-68
2021/05/11 03:33:24;;;;;;;2.22;1.13;;;18.80;47.00;;;;;;5012336;28;20053;-68
2021/05/11 03:35:50;;;;;;;5.60;1.38;;;18.80;47.00;;;;;;5015435;28;20427;-68
2021/05/11 03:38:16;;;;;;;6.30;1.40;;;18.80;47.00;;;;;;5012222;28;20037;-69
2021/05/11 03:40:41;;;;;;;2.78;1.45;;;18.80;46.80;;;;;;5010825;28;20044;-68
2021/05/11 03:43:12;;;;;;;3.13;1.55;;;18.80;46.70;;;;;;5012159;28;20026;-68
2021/05/11 03:45:43;;;;;;;2.42;1.23;;;18.80;46.60;;;;;;5025975;28;20025;-69
2021/05/11 03:48:09;;;;;;;3.83;2.05;;;18.80;46.60;;;;;;5016063;28;20026;-69
2021/05/11 03:50:35;;;;;;;3.75;1.75;;;18.80;46.40;;;;;;5025841;28;20060;-69
2021/05/11 03:53:01;;;;;;;3.42;1.45;;;18.80;46.50;;;;;;5031640;28;20053;-68
2021/05/11 03:55:27;;;;;;;10.23;1.63;;;18.80;46.40;;;;;;5018008;28;20041;-68
2021/05/11 03:57:53;;;;;;;6.85;1.20;;;18.80;46.30;;;;;;5012293;28;20021;-68
2021/05/11 04:00:19;;;;;;;1.63;1.08;;;18.80;46.30;;;;;;5011977;28;20026;-68
2021/05/11 04:02:45;;;;;;;3.63;1.40;;;18.90;46.40;;;;;;5010738;28;20026;-68
2021/05/11 04:05:14;;;;;;;3.75;1.50;;;18.90;46.30;;;;;;5021259;28;20044;-68
2021/05/11 04:07:41;;;;;;;2.25;1.30;;;19.00;46.30;;;;;;5030446;28;20025;-68
2021/05/11 04:10:21;;;;;;;3.97;1.45;;;19.00;46.10;;;;;;5031457;28;20029;-68
2021/05/11 04:18:16;;;;;;;6.57;1.60;;;19.20;46.20;;;;;;5035804;28;20159;-68
2021/05/11 04:20:42;;;;;;;2.45;1.33;;;19.30;46.00;;;;;;5018942;28;20053;-68
2021/05/11 04:23:07;;;;;;;5.20;1.38;;;19.30;46.50;;;;;;5015441;28;20517;-69
2021/05/11 04:25:33;;;;;;;2.70;1.40;;;19.40;46.00;;;;;;5028594;28;20057;-69
2021/05/11 04:27:59;;;;;;;4.25;1.40;;;19.40;45.90;;;;;;5034411;28;20249;-69
2021/05/11 04:30:25;;;;;;;15.10;1.92;;;19.50;46.00;;;;;;5035699;28;20052;-69
2021/05/11 04:32:51;;;;;;;6.53;1.50;;;19.60;45.80;;;;;;5035177;28;20041;-68
2021/05/11 04:35:17;;;;;;;7.82;1.73;;;19.70;45.70;;;;;;5024703;28;20491;-69
2021/05/11 04:37:43;;;;;;;3.90;1.30;;;19.80;45.40;;;;;;5016264;28;20096;-68
2021/05/11 04:40:10;;;;;;;6.18;1.50;;;19.90;45.40;;;;;;5016206;28;20022;-68
2021/05/11 04:42:35;;;;;;;3.15;1.20;;;20.00;45.50;;;;;;5016151;28;20498;-69
2021/05/11 04:45:04;;;;;;;3.03;1.23;;;20.10;45.20;;;;;;5023436;28;20026;-69
2021/05/11 04:47:46;;;;;;;1.65;1.10;;;20.20;45.00;;;;;;5014775;28;20065;-69
2021/05/11 04:50:20;;;;;;;5.82;1.73;;;20.20;44.80;;;;;;5015662;28;20065;-68
2021/05/11 04:52:46;;;;;;;7.05;1.40;;;20.30;44.80;;;;;;5016095;28;20496;-69
2021/05/11 04:55:13;;;;;;;8.48;1.80;;;20.40;44.70;;;;;;5027944;28;20061;-68
2021/05/11 04:57:40;;;;;;;4.82;1.55;;;20.50;44.70;;;;;;5035687;28;20167;-68
2021/05/11 05:00:08;;;;;;;3.50;1.92;;;20.50;44.70;;;;;;5035347;28;20394;-69
2021/05/11 05:02:35;;;;;;;4.93;1.60;;;20.60;44.60;;;;;;5035541;28;20017;-68
2021/05/11 05:05:01;;;;;;;3.53;1.35;;;20.70;44.40;;;;;;5024674;28;20029;-69
2021/05/11 05:07:27;;;;;;;5.80;1.77;;;20.80;44.20;;;;;;5016594;28;20105;-69
2021/05/11 05:09:53;;;;;;;5.68;1.55;;;20.90;43.90;;;;;;5019207;28;20113;-69
2021/05/11 05:12:19;;;;;;;3.83;1.75;;;21.00;43.60;;;;;;5015621;28;20518;-69
2021/05/11 05:14:45;;;;;;;3.83;1.40;;;21.10;43.50;;;;;;5023291;28;20057;-69
2021/05/11 05:17:11;;;;;;;7.20;1.25;;;21.30;43.20;;;;;;5034700;28;20038;-69
2021/05/11 05:19:36;;;;;;;3.47;1.50;;;21.40;42.80;;;;;;5029074;28;20029;-69
2021/05/11 05:22:03;;;;;;;4.30;1.48;;;21.50;41.90;;;;;;5014988;28;20022;-69
2021/05/11 05:24:34;;;;;;;3.45;1.48;;;21.60;41.90;;;;;;5020539;28;20022;-69
2021/05/11 05:27:13;;;;;;;4.38;1.17;;;21.70;41.80;;;;;;5035091;28;20108;-69
2021/05/11 05:29:39;;;;;;;4.80;1.40;;;21.80;41.70;;;;;;5034886;28;20391;-69
2021/05/11 05:32:05;;;;;;;5.38;2.22;;;22.00;41.60;;;;;;5033563;28;20018;-69
2021/05/11 05:34:31;;;;;;;4.35;1.30;;;22.10;41.90;;;;;;5029007;28;20430;-69
2021/05/11 05:36:57;;;;;;;2.97;1.25;;;22.20;41.70;;;;;;5014829;28;20037;-69
2021/05/11 05:39:31;;;;;;;4.50;1.50;;;22.30;41.60;;;;;;5030364;28;20025;-69
2021/05/11 05:41:56;;;;;;;4.50;1.80;;;22.40;41.20;;;;;;5014982;28;20103;-69
2021/05/11 05:44:22;;;;;;;3.75;1.50;;;22.50;41.10;;;;;;5018224;28;20026;-69
2021/05/11 05:46:48;;;;;;;6.85;1.73;;;22.60;40.80;;;;;;5033142;28;20029;-69
2021/05/11 05:49:13;;;;;;;8.77;1.95;;;22.70;40.50;;;;;;5032926;28;20041;-68
2021/05/11 05:51:39;;;;;;;5.90;1.63;;;22.80;40.50;;;;;;5034071;28;20157;-69
2021/05/11 05:54:05;;;;;;;13.57;1.73;;;22.80;40.40;;;;;;5032588;28;20022;-69
2021/05/11 05:56:31;;;;;;;5.50;1.83;;;22.90;40.20;;;;;;5033924;28;20534;-69
2021/05/11 05:58:58;;;;;;;5.45;1.75;;;22.90;40.40;;;;;;5032437;28;20463;-69
2021/05/11 06:01:28;;;;;;;6.07;1.80;;;22.90;40.10;;;;;;5034377;28;20029;-69
2021/05/11 06:04:11;;;;;;;17.92;3.67;;;22.90;39.80;;;;;;5033011;28;20025;-69
2021/05/11 06:06:37;;;;;;;16.47;2.80;;;22.90;40.20;;;;;;5032169;28;20116;-69
2021/05/11 06:09:14;;;;;;;14.13;3.30;;;23.00;40.40;;;;;;5033926;28;20032;-69
2021/05/11 06:11:54;;;;;;;15.10;3.50;;;23.00;40.80;;;;;;5033633;28;20095;-68
2021/05/11 06:14:48;;;;;;;12.88;2.75;;;23.00;40.50;;;;;;5020376;28;20112;-69
2021/05/11 06:17:19;;;;;;;14.18;2.70;;;23.00;40.20;;;;;;5033526;28;20068;-69
2021/05/11 06:19:47;;;;;;;11.65;3.05;;;23.00;40.00;;;;;;5030245;28;20450;-68
2021/05/11 06:22:13;;;;;;;14.45;3.28;;;23.10;40.60;;;;;;5033856;28;20112;-68
2021/05/11 06:24:40;;;;;;;13.90;2.50;;;23.10;40.40;;;;;;5024723;28;20033;-68
2021/05/11 06:27:07;;;;;;;11.80;3.20;;;23.10;40.30;;;;;;5012584;28;20030;-69
2021/05/11 06:29:37;;;;;;;11.75;2.92;;;23.10;40.10;;;;;;5012498;28;20033;-69
2021/05/11 06:32:03;;;;;;;4.93;2.47;;;23.20;40.00;;;;;;5012705;28;20026;-69
2021/05/11 06:34:30;;;;;;;8.90;2.42;;;23.20;39.70;;;;;;5012292;28;20024;-69
2021/05/11 06:36:56;;;;;;;5.28;2.03;;;23.30;40.10;;;;;;5021999;28;20026;-69
2021/05/11 06:39:22;;;;;;;18.40;4.93;;;23.30;39.10;;;;;;5018029;28;20368;-69
2021/05/11 06:41:52;;;;;;;8.38;3.70;;;23.40;38.60;;;;;;5025174;28;20561;-69
2021/05/11 06:54:43;;;;;;;11.73;5.70;;;23.80;35.70;;;;;;5025117;28;20117;-68
2021/05/11 06:57:09;;;;;;;13.60;7.13;;;23.90;36.00;;;;;;5030173;28;20096;-68
2021/05/11 06:59:34;;;;;;;9.05;4.10;;;24.00;35.00;;;;;;5018610;28;20109;-69
2021/05/11 07:02:02;;;;;;;19.08;8.13;;;24.10;34.40;;;;;;5030170;28;20053;-68
2021/05/11 07:04:28;;;;;;;24.17;13.25;;;24.20;34.80;;;;;;5024067;28;20026;-69
2021/05/11 07:06:54;;;;;;;14.40;8.73;;;24.30;35.00;;;;;;5029082;28;20072;-68
2021/05/11 07:09:38;;;;;;;18.40;7.82;;;24.40;34.00;;;;;;5026163;28;20029;-70
2021/05/11 07:14:30;;;;;;;16.50;10.45;;;24.60;34.40;;;;;;5013449;28;20113;-69
2021/05/11 07:16:55;;;;;;;16.77;9.75;;;24.70;34.10;;;;;;5012994;28;20022;-69
2021/05/11 07:19:22;;;;;;;13.95;5.80;;;24.80;34.10;;;;;;5015533;28;20034;-69
2021/05/11 07:21:48;;;;;;;6.68;4.00;;;24.90;33.40;;;;;;5017304;28;20066;-69
2021/05/11 07:24:14;;;;;;;8.82;3.88;;;24.90;33.50;;;;;;5032880;28;20108;-71
2021/05/11 07:32:07;;;;;;;;;;;25.20;32.80;;;;;;5024594;28;20390;-68
2021/05/11 07:34:33;;;;;;;15.52;8.57;;;25.30;34.40;;;;;;5023993;28;19909;-68
2021/05/11 07:37:00;;;;;;;8.02;4.85;;;25.30;33.00;;;;;;5019207;28;20514;-68
2021/05/11 07:39:25;;;;;;;9.55;5.70;;;25.40;32.00;;;;;;5015583;28;20029;-68
2021/05/11 07:41:51;;;;;;;8.60;2.78;;;25.40;32.20;;;;;;5023344;28;20029;-68
2021/05/11 07:44:17;;;;;;;4.45;2.33;;;25.50;30.60;;;;;;5018827;28;20030;-68
2021/05/11 07:47:09;;;;;;;3.58;1.60;;;25.50;30.60;;;;;;5032285;28;20025;-69
2021/05/11 08:16:44;;;;;;;4.77;1.30;;;26.40;30.90;;;;;;5032175;28;20298;-68
2021/05/11 08:22:11;;;;;;;10.02;5.13;;;26.50;29.70;;;;;;5020485;28;20033;-68
2021/05/11 08:27:43;;;;;;;5.40;1.98;;;26.70;28.60;;;;;;5041637;28;20056;-68
2021/05/11 08:30:10;;;;;;;6.95;3.75;;;26.70;28.30;;;;;;5030947;28;20052;-68
2021/05/11 08:32:36;;;;;;;4.60;2.05;;;26.70;28.80;;;;;;5032091;28;20033;-68
2021/05/11 08:35:02;;;;;;;2.13;1.40;;;26.80;28.40;;;;;;5025091;28;20028;-67
2021/05/11 08:37:28;;;;;;;5.72;1.90;;;26.80;28.80;;;;;;5012256;28;20025;-68
2021/05/11 08:39:54;;;;;;;4.80;2.22;;;26.90;28.10;;;;;;5026364;28;20026;-68
2021/05/11 08:42:19;;;;;;;7.97;4.22;;;27.00;28.20;;;;;;5012969;28;20026;-68
2021/05/11 08:44:45;;;;;;;13.55;4.03;;;27.00;28.40;;;;;;5019396;28;20399;-68
2021/05/11 08:47:11;;;;;;;6.72;2.95;;;27.10;28.40;;;;;;5015315;28;20030;-70
2021/05/11 08:49:39;;;;;;;7.50;3.90;;;27.20;28.40;;;;;;5021397;28;20394;-68
2021/05/11 08:52:55;;;;;;;17.98;9.15;;;27.30;28.90;;;;;;5031952;28;20478;-69
2021/05/11 08:55:17;;;;;;;6.90;4.45;;;27.40;29.30;;;;;;5035713;28;20090;-71
2021/05/11 09:25:25;;;;;;;2.78;1.30;;;28.20;27.40;;;;;;5033882;28;20415;-67
2021/05/11 09:28:08;;;;;;;2.08;1.27;;;28.20;27.20;;;;;;5033901;28;20471;-66
2021/05/11 09:31:35;;;;;;;3.28;1.20;;;28.30;27.30;;;;;;5028253;28;20051;-66
2021/05/11 10:36:41;;;;;;;4.22;1.40;;;29.90;22.50;;;;;;4972852;28;20539;-67
2021/05/11 10:39:34;;;;;;;5.35;1.35;;;30.00;22.00;;;;;;4972511;28;20445;-68
2021/05/11 10:48:18;;;;;;;6.03;2.72;;;30.20;22.10;;;;;;4972545;28;20046;-67
2021/05/11 10:50:47;;;;;;;8.93;1.93;;;30.20;22.80;;;;;;4972080;28;20046;-67
2021/05/11 10:53:42;;;;;;;9.20;1.70;;;30.30;22.20;;;;;;4972471;28;20039;-68
2021/05/11 11:01:57;;;;;;;4.97;2.00;;;30.60;23.20;;;;;;5033313;28;20021;-67
2021/05/11 11:04:26;;;;;;;7.22;2.42;;;30.80;22.90;;;;;;5033296;28;20021;-67
2021/05/11 11:07:00;;;;;;;4.45;1.77;;;30.90;23.30;;;;;;5031913;28;20105;-68
2021/05/11 11:09:30;;;;;;;4.28;2.28;;;31.00;23.20;;;;;;5033101;28;20033;-67
2021/05/11 11:11:57;;;;;;;5.55;2.42;;;31.00;23.20;;;;;;5033156;28;20021;-67
2021/05/11 11:14:24;;;;;;;14.65;1.85;;;31.10;23.20;;;;;;5033381;28;20017;-68
2021/05/11 11:17:06;;;;;;;7.38;1.52;;;31.20;22.90;;;;;;5033076;28;20084;-67
2021/05/11 11:19:32;;;;;;;2.53;1.30;;;31.30;22.70;;;;;;5025587;28;20033;-67
2021/05/11 11:23:32;;;;;;;3.38;1.30;;;31.50;22.90;;;;;;5013109;28;20036;-68
2021/05/11 11:24:51;;;;;;;7.00;1.17;;;31.50;23.00;;;;;;5013369;28;20113;-67
2021/05/11 11:27:26;;;;;;;7.15;2.03;;;31.70;22.60;;;;;;5013213;28;20112;-67
2021/05/11 11:30:07;;;;;;;2.92;1.20;;;31.80;22.70;;;;;;5013178;28;20022;-67
2021/05/11 11:32:34;;;;;;;3.97;1.52;;;32.00;22.60;;;;;;5013215;28;20025;-68
2021/05/11 11:35:01;;;;;;;3.83;1.27;;;32.20;22.50;;;;;;5013115;28;20046;-67
2021/05/11 11:37:29;;;;;;;3.55;1.73;;;32.30;22.20;;;;;;5012739;28;20046;-68
2021/05/11 11:39:59;;;;;;;2.83;1.58;;;32.50;22.40;;;;;;5012903;28;20018;-68
2021/05/11 11:42:25;;;;;;;7.50;1.70;;;32.60;22.00;;;;;;5012946;28;20028;-68
2021/05/11 11:44:57;;;;;;;8.50;2.30;;;32.80;21.90;;;;;;5015152;28;20030;-67
2021/05/11 11:47:23;;;;;;;7.40;1.50;;;32.90;22.40;;;;;;5012816;28;20022;-68
2021/05/11 11:49:51;;;;;;;4.38;1.38;;;33.00;21.80;;;;;;5012420;28;20045;-68
2021/05/11 12:00:22;;;;;;;2.00;1.23;;;33.40;20.80;;;;;;5012841;28;20169;-68
2021/05/11 12:03:06;;;;;;;2.60;1.15;;;33.60;21.20;;;;;;5012510;28;20052;-67
2021/05/11 12:05:34;;;;;;;7.57;2.05;;;33.70;20.70;;;;;;5012731;28;20030;-68
2021/05/11 12:10:47;;;;;;;4.55;1.55;;;33.90;20.30;;;;;;5012630;28;20022;-68
2021/05/11 12:13:17;;;;;;;4.55;1.40;;;33.90;20.00;;;;;;5012921;28;20399;-68
2021/05/11 12:15:43;;;;;;;2.95;1.85;;;34.00;20.30;;;;;;5012620;28;20018;-68
2021/05/11 12:20:40;;;;;;;2.80;1.48;;;34.30;20.60;;;;;;5012841;28;20030;-68
2021/05/11 12:23:18;;;;;;;4.28;1.85;;;34.40;20.60;;;;;;5012563;28;20483;-68
2021/05/11 12:25:56;;;;;;;11.65;1.35;;;34.50;20.00;;;;;;5012497;28;20030;-68
2021/05/11 12:28:36;;;;;;;4.70;1.80;;;34.50;18.90;;;;;;5012640;28;20328;-68
2021/05/11 12:31:04;;;;;;;3.38;1.48;;;34.60;19.00;;;;;;5012420;28;20053;-68
2021/05/11 12:33:42;;;;;;;7.45;1.95;;;34.70;18.50;;;;;;5016060;28;20030;-68
2021/05/11 12:36:23;;;;;;;8.68;1.42;;;34.80;19.00;;;;;;5016318;28;20050;-68
2021/05/11 12:38:51;;;;;;;6.53;1.90;;;34.90;18.90;;;;;;5016267;28;20026;-69
2021/05/11 12:41:33;;;;;;;2.28;1.00;;;35.00;18.90;;;;;;5016258;28;20582;-68
2021/05/11 12:44:02;;;;;;;5.55;1.33;;;35.10;19.10;;;;;;5016155;28;20026;-68
2021/05/11 12:46:29;;;;;;;6.85;1.42;;;35.20;18.90;;;;;;5016082;28;20388;-68
2021/05/11 12:49:15;;;;;;;3.90;1.20;;;35.20;17.70;;;;;;5015986;28;20457;-68
2021/05/11 12:51:46;;;;;;;2.67;1.30;;;35.30;18.00;;;;;;5016074;28;20361;-68
2021/05/11 12:54:36;;;;;;;3.17;1.20;;;35.30;17.80;;;;;;5015866;28;20021;-68
2021/05/11 12:57:23;;;;;;;7.85;1.40;;;35.40;18.00;;;;;;5015876;28;20017;-67
2021/05/11 13:00:08;;;;;;;3.55;1.20;;;35.30;16.90;;;;;;5015571;28;20026;-68
2021/05/11 13:27:16;;;;;;;3.88;1.20;;;34.70;17.10;;;;;;5035131;28;20056;-69
2021/05/11 13:35:07;;;;;;;4.63;1.40;;;34.80;17.30;;;;;;5015168;28;20018;-69
2021/05/11 13:37:33;;;;;;;3.70;1.70;;;34.80;16.80;;;;;;5013998;28;20391;-69
2021/05/11 13:40:00;;;;;;;12.75;2.00;;;34.80;17.10;;;;;;5015121;28;20032;-69
2021/05/11 13:42:27;;;;;;;7.13;0.90;;;34.80;17.10;;;;;;5015030;28;20040;-69
2021/05/11 13:44:53;;;;;;;5.32;1.67;;;34.80;17.20;;;;;;5020176;28;20018;-69
2021/05/11 13:47:20;;;;;;;8.90;1.50;;;34.80;17.00;;;;;;5018078;28;20029;-69
2021/05/11 13:49:49;;;;;;;4.13;1.23;;;34.90;17.00;;;;;;5029450;28;20045;-69
2021/05/11 13:52:15;;;;;;;5.53;1.63;;;34.90;17.10;;;;;;5016699;28;20018;-69
2021/05/11 13:54:42;;;;;;;11.07;1.50;;;35.00;17.40;;;;;;5014509;28;20029;-69
2021/05/11 14:04:44;;;;;;;4.43;1.20;;;35.00;16.50;;;;;;5029939;28;20022;-69
2021/05/11 14:07:09;;;;;;;4.22;1.52;;;34.90;16.80;;;;;;5032369;28;20053;-69
2021/05/11 14:09:35;;;;;;;5.30;1.88;;;34.80;16.90;;;;;;5032844;28;20112;-69
2021/05/11 14:12:01;;;;;;;6.80;1.83;;;34.70;17.10;;;;;;5034168;28;20391;-69
2021/05/11 14:14:27;;;;;;;7.78;3.60;;;34.60;17.00;;;;;;5034107;28;20075;-69
2021/05/11 14:16:53;;;;;;;6.13;2.63;;;34.50;17.10;;;;;;5034118;28;20018;-69
2021/05/11 14:19:19;;;;;;;7.57;2.08;;;34.30;17.20;;;;;;5030117;28;20048;-69
2021/05/11 14:21:45;;;;;;;7.00;2.38;;;34.10;17.30;;;;;;5014230;28;20018;-69
2021/05/11 14:24:11;;;;;;;6.85;3.13;;;34.00;17.50;;;;;;5014240;28;20117;-69
2021/05/11 14:26:38;;;;;;;10.60;2.28;;;33.80;17.50;;;;;;5014148;28;20109;-70
2021/05/11 14:29:04;;;;;;;5.30;1.95;;;33.70;17.70;;;;;;5029214;28;20076;-70
2021/05/11 14:31:30;;;;;;;13.13;2.67;;;33.60;17.90;;;;;;5013883;28;20022;-69
2021/05/11 14:33:55;;;;;;;5.88;2.42;;;33.40;17.90;;;;;;5013942;28;20491;-69
2021/05/11 14:36:21;;;;;;;9.02;2.97;;;33.30;18.20;;;;;;5012712;28;20053;-69
2021/05/11 14:38:48;;;;;;;6.35;3.08;;;33.20;18.30;;;;;;5012860;28;20029;-69
2021/05/11 14:41:14;;;;;;;4.68;2.30;;;33.10;18.30;;;;;;5013892;28;20026;-69
2021/05/11 14:43:41;;;;;;;7.53;1.63;;;33.00;18.30;;;;;;5013743;28;20048;-69
2021/05/11 14:46:08;;;;;;;6.65;1.95;;;32.90;18.40;;;;;;5013623;28;20386;-69
2021/05/11 14:48:35;;;;;;;7.63;1.70;;;32.80;18.50;;;;;;5013007;28;20079;-69
2021/05/11 14:51:01;;;;;;;7.43;2.30;;;32.70;18.50;;;;;;5013777;28;20022;-68
2021/05/11 14:53:31;;;;;;;7.32;2.13;;;32.70;18.80;;;;;;5013680;28;20046;-69
2021/05/11 14:55:57;;;;;;;6.50;2.35;;;32.60;18.80;;;;;;5013031;28;20022;-69
2021/05/11 14:58:23;;;;;;;10.48;4.60;;;32.50;18.80;;;;;;5012405;28;20042;-69
2021/05/11 15:00:49;;;;;;;5.82;1.88;;;32.50;19.00;;;;;;5013473;28;20502;-69
2021/05/11 15:03:15;;;;;;;5.40;2.15;;;32.40;18.90;;;;;;5013344;28;20032;-69
2021/05/11 15:05:41;;;;;;;6.60;2.17;;;32.40;19.10;;;;;;5013050;28;20044;-69
2021/05/11 15:08:08;;;;;;;6.28;1.67;;;32.30;19.00;;;;;;5011724;28;20029;-68
2021/05/11 15:10:34;;;;;;;6.88;1.40;;;32.20;19.00;;;;;;5013079;28;20033;-69
2021/05/11 15:13:00;;;;;;;3.80;1.35;;;32.20;19.00;;;;;;5013167;28;20032;-69
2021/05/11 15:15:27;;;;;;;4.25;1.15;;;32.10;19.00;;;;;;5026328;28;20033;-69
2021/05/11 15:20:20;;;;;;;5.90;1.67;;;32.00;19.20;;;;;;5012909;28;20030;-69
2021/05/11 15:22:51;;;;;;;3.63;1.80;;;32.00;19.40;;;;;;5016363;28;20033;-68
2021/05/11 15:25:18;;;;;;;5.00;2.20;;;31.90;19.50;;;;;;5012637;28;20021;-69
2021/05/11 15:27:44;;;;;;;4.53;1.60;;;31.90;19.60;;;;;;5011449;28;20033;-69
2021/05/11 15:30:10;;;;;;;5.28;1.63;;;31.80;19.70;;;;;;5012723;28;20105;-69
2021/05/11 15:32:47;;;;;;;5.50;2.30;;;31.80;19.80;;;;;;5011686;28;20022;-69
2021/05/11 15:35:16;;;;;;;7.18;3.28;;;31.70;19.90;;;;;;5012824;28;20472;-69
2021/05/11 15:37:45;;;;;;;6.40;2.10;;;31.70;20.50;;;;;;5012939;28;20022;-69
2021/05/11 15:40:13;;;;;;;3.20;1.35;;;31.60;20.10;;;;;;5011370;28;20024;-69
2021/05/11 15:42:39;;;;;;;4.18;1.48;;;31.60;20.30;;;;;;5012774;28;20025;-69
2021/05/11 15:45:07;;;;;;;6.32;1.60;;;31.50;20.30;;;;;;5012837;28;20374;-69
2021/05/11 15:47:33;;;;;;;2.30;1.40;;;31.40;20.30;;;;;;5012589;28;20041;-69
2021/05/11 15:49:59;;;;;;;3.95;1.48;;;31.30;20.40;;;;;;5012607;28;20050;-69
2021/05/11 15:52:25;;;;;;;2.65;1.63;;;31.30;20.60;;;;;;5028119;28;20072;-69
2021/05/11 15:54:51;;;;;;;4.90;1.55;;;31.30;20.70;;;;;;5027986;28;20010;-69
2021/05/11 15:57:17;;;;;;;6.30;1.38;;;31.20;20.70;;;;;;5012752;28;20129;-69
2021/05/11 15:59:43;;;;;;;4.03;1.38;;;31.20;20.80;;;;;;5012724;28;20068;-69
2021/05/11 16:02:10;;;;;;;3.45;1.50;;;31.10;20.90;;;;;;5012791;28;20037;-69
2021/05/11 16:04:36;;;;;;;7.72;1.60;;;31.10;21.10;;;;;;5012794;28;20097;-70
2021/05/11 16:07:02;;;;;;;4.47;1.50;;;31.10;21.60;;;;;;5015706;28;20014;-69
2021/05/11 16:09:28;;;;;;;3.55;1.60;;;31.00;21.40;;;;;;5016685;28;20105;-69
2021/05/11 16:11:54;;;;;;;4.32;1.80;;;31.00;21.40;;;;;;5016637;28;20105;-69
2021/05/11 16:14:20;;;;;;;4.72;1.50;;;31.00;21.40;;;;;;5031973;28;20022;-69
2021/05/11 16:16:45;;;;;;;3.38;1.67;;;30.90;21.40;;;;;;5016592;28;20026;-69
2021/05/11 16:19:11;;;;;;;8.10;1.80;;;30.90;21.50;;;;;;5016225;28;20026;-69
2021/05/11 16:21:37;;;;;;;4.30;1.58;;;30.90;21.50;;;;;;5016553;28;20488;-69
2021/05/11 16:24:04;;;;;;;3.40;1.40;;;30.90;21.60;;;;;;5016442;28;20026;-69
2021/05/11 16:26:29;;;;;;;4.70;1.73;;;30.90;22.30;;;;;;5016350;28;20580;-69
2021/05/11 16:28:55;;;;;;;5.15;1.67;;;30.90;21.90;;;;;;5016354;28;20026;-69
2021/05/11 16:31:22;;;;;;;7.35;2.33;;;30.80;21.90;;;;;;5016318;28;20022;-68
2021/05/11 16:33:48;;;;;;;7.53;1.50;;;30.80;22.00;;;;;;5016139;28;20021;-69
2021/05/11 16:36:14;;;;;;;12.98;1.40;;;30.70;21.90;;;;;;5016367;28;20030;-69
2021/05/11 16:38:40;;;;;;;10.05;2.35;;;30.70;21.80;;;;;;5016175;28;20026;-69
2021/05/11 16:41:06;;;;;;;7.82;1.70;;;30.60;21.60;;;;;;5016134;28;20176;-67
2021/05/11 16:43:33;;;;;;;3.83;1.48;;;30.50;21.50;;;;;;5016045;28;20085;-67
2021/05/11 16:46:02;;;;;;;11.30;1.70;;;30.50;21.40;;;;;;5016062;28;20065;-66
2021/05/11 16:48:30;;;;;;;4.97;1.70;;;30.40;21.50;;;;;;5014549;28;20026;-67
2021/05/11 16:50:55;;;;;;;6.85;1.50;;;30.40;21.60;;;;;;5016209;28;20036;-67
2021/05/11 16:53:21;;;;;;;7.78;1.90;;;30.30;21.60;;;;;;5015821;28;20025;-67
2021/05/11 16:55:47;;;;;;;5.88;2.40;;;30.30;21.50;;;;;;5015835;28;20014;-67
2021/05/11 16:58:13;;;;;;;3.17;1.10;;;30.20;21.50;;;;;;5015862;28;20018;-68
2021/05/11 17:00:40;;;;;;;10.73;2.13;;;30.10;21.40;;;;;;5015772;28;20434;-67
2021/05/11 17:03:06;;;;;;;8.25;1.40;;;30.00;22.00;;;;;;5015637;28;20022;-67
2021/05/11 17:05:33;;;;;;;12.20;1.38;;;30.00;22.30;;;;;;5015811;28;20382;-67
2021/05/11 17:07:59;;;;;;;9.35;1.85;;;30.00;22.30;;;;;;5015733;28;20486;-67
2021/05/11 17:10:28;;;;;;;5.95;1.75;;;29.90;22.20;;;;;;5015614;28;20062;-67
2021/05/11 17:12:56;;;;;;;19.92;2.50;;;29.80;22.00;;;;;;5015603;28;20018;-67
2021/05/11 17:15:23;;;;;;;14.25;3.58;;;29.70;22.90;;;;;;5015533;28;20018;-67